AGH weather

Ängelholm-Helsingborg Airport
Ängelholm, Skåne län, Sweden

Public forecast

Using degrees Celsius for public forecast. Weather courtesy of forecast.io.

Current aviation weather report (METAR) for Ängelholm-Helsingborg Airport

Retrieved 2019/10/21 04:20 UTC (18 minutes ago):

ESTA 210420Z 10003KT 1200 R14/P1500N R32/P1500N NSC 07/07 Q1017

Closest aviation forecast (TAF) to Ängelholm-Helsingborg Airport

Forecast is more than 12 hours old.

Closest forecast is Ljungbyhed Airport, 17.7 nm (32.8 km) SE. Retrieved 2016/03/01 09:33 UTC (4 years ago):

TAF ESTL 010830Z 0109/0124 14004KT 9999 SCT025